Time;durP1;ratioP1;P1;durP2;ratioP2;P2;SDS_P1;SDS_P2;PMS_P1;PMS_P2;Temp;Humidity;BMP_temperature;BMP_pressure;BME280_temperature;BME280_humidity;BME280_pressure;Samples;Min_cycle;Max_cycle;Signal;HPM_P1;HPM_P2
2022/10/10 03:14:21;;;;;;;;;;;15.30;70.80;;;;;;5086732;28;19951;-74
2022/10/10 03:16:47;;;;;;;;;;;15.30;71.10;;;;;;5088264;28;20448;-73
2022/10/10 03:19:14;;;;;;;;;;;15.40;70.90;;;;;;5092432;28;19916;-75
2022/10/10 03:21:40;;;;;;;;;;;15.40;71.00;;;;;;5090099;28;19991;-75
2022/10/10 03:24:07;;;;;;;;;;;15.40;70.00;;;;;;5091658;28;19934;-75
2022/10/10 03:26:34;;;;;;;;;;;15.40;70.10;;;;;;5088530;28;19931;-72
2022/10/10 03:29:01;;;;;;;;;;;15.50;70.10;;;;;;5088809;28;19943;-72
2022/10/10 03:31:28;;;;;;;;;;;15.50;70.50;;;;;;5091822;28;20362;-72
2022/10/10 03:33:54;;;;;;;;;;;15.50;69.90;;;;;;5092333;28;19990;-72
2022/10/10 03:36:22;;;;;;;;;;;15.60;70.20;;;;;;5092174;28;19916;-72
2022/10/10 03:38:48;;;;;;;;;;;15.60;69.10;;;;;;5092044;28;20836;-72
2022/10/10 03:41:15;;;;;;;;;;;15.60;70.70;;;;;;5092184;28;19909;-72
2022/10/10 03:43:42;;;;;;;;;;;15.60;68.60;;;;;;5092182;28;19961;-72
2022/10/10 03:46:08;;;;;;;;;;;15.70;68.80;;;;;;5092168;28;20277;-72
2022/10/10 03:48:35;;;;;;;;;;;15.70;68.60;;;;;;5092017;28;19963;-72
2022/10/10 03:51:02;;;;;;;;;;;15.70;68.40;;;;;;5092114;28;19930;-72
2022/10/10 03:53:28;;;;;;;;;;;15.70;69.40;;;;;;5092457;28;19947;-73
2022/10/10 03:55:55;;;;;;;;;;;15.80;68.40;;;;;;5092281;28;19916;-72
2022/10/10 03:58:22;;;;;;;;;;;15.80;68.20;;;;;;5091972;28;19919;-72
2022/10/10 04:00:57;;;;;;;;;;;15.80;67.00;;;;;;5091931;28;19915;-72
2022/10/10 04:03:24;;;;;;;;;;;15.90;67.80;;;;;;5091868;28;19943;-72
2022/10/10 04:05:51;;;;;;;;;;;16.00;68.10;;;;;;5092140;28;20012;-72
2022/10/10 04:08:18;;;;;;;;;;;16.00;67.60;;;;;;5092165;28;19908;-72
2022/10/10 04:10:48;;;;;;;;;;;16.00;67.00;;;;;;5091782;28;20347;-72
2022/10/10 04:13:14;;;;;;;;;;;15.90;66.90;;;;;;5092022;28;19915;-72
2022/10/10 22:33:52;;;;;;;;;;;16.40;72.00;;;;;;5083729;28;19939;-74
2022/10/10 22:36:19;;;;;;;;;;;16.40;71.70;;;;;;5089362;28;19924;-73
2022/10/10 22:38:46;;;;;;;;;;;16.40;70.40;;;;;;5075204;28;19912;-73
2022/10/10 22:41:12;;;;;;;;;;;16.50;70.30;;;;;;5074924;28;19915;-73
2022/10/10 22:43:39;;;;;;;;;;;16.50;71.00;;;;;;5075237;28;19912;-73
2022/10/10 22:46:06;;;;;;;;;;;16.50;70.80;;;;;;5073409;28;19916;-77
2022/10/10 22:48:32;;;;;;;;;;;16.50;70.70;;;;;;5083572;28;20369;-76
2022/10/10 22:51:03;;;;;;;;;;;16.50;70.40;;;;;;5092604;28;20290;-76
2022/10/10 22:53:29;;;;;;;;;;;16.50;71.70;;;;;;5085631;28;19954;-75
2022/10/10 22:55:56;;;;;;;;;;;16.50;72.10;;;;;;5093044;28;19909;-75
2022/10/10 22:58:23;;;;;;;;;;;16.50;71.40;;;;;;5092905;28;19954;-75
2022/10/10 23:00:50;;;;;;;;;;;16.50;71.80;;;;;;5092752;28;19916;-76
2022/10/10 23:03:16;;;;;;;;;;;16.50;71.50;;;;;;5092503;28;20278;-76
2022/10/10 23:05:44;;;;;;;;;;;16.40;70.50;;;;;;5092512;28;20009;-75
2022/10/10 23:08:11;;;;;;;;;;;16.40;70.60;;;;;;5092520;28;19908;-75
2022/10/10 23:10:37;;;;;;;;;;;16.40;70.50;;;;;;5092812;28;19915;-75
2022/10/10 23:13:04;;;;;;;;;;;16.40;71.10;;;;;;5092400;28;19916;-75
2022/10/10 23:15:31;;;;;;;;;;;16.40;71.30;;;;;;5092498;28;19908;-77
2022/10/10 23:17:57;;;;;;;;;;;16.40;70.90;;;;;;5092450;28;19924;-77
2022/10/10 23:20:24;;;;;;;;;;;16.40;70.20;;;;;;5092479;28;19908;-77
2022/10/10 23:22:51;;;;;;;;;;;16.50;70.60;;;;;;5092632;28;20282;-77
2022/10/10 23:25:17;;;;;;;;;;;16.40;69.20;;;;;;5092199;28;19919;-77
2022/10/10 23:27:44;;;;;;;;;;;16.40;70.30;;;;;;5092585;28;19961;-76
2022/10/10 23:30:11;;;;;;;;;;;16.40;69.00;;;;;;5074234;28;19991;-73
2022/10/10 23:32:37;;;;;;;;;;;16.40;70.00;;;;;;5092311;28;19927;-73
2022/10/10 23:35:04;;;;;;;;;;;16.50;71.10;;;;;;5089261;28;20286;-74
2022/10/10 23:37:31;;;;;;;;;;;16.50;71.10;;;;;;5090891;28;19920;-73
2022/10/10 23:39:57;;;;;;;;;;;16.50;71.10;;;;;;5089481;28;20366;-73
2022/10/10 23:42:24;;;;;;;;;;;16.50;70.00;;;;;;5090059;28;20488;-72
2022/10/10 23:44:50;;;;;;;;;;;16.60;69.30;;;;;;5091162;28;20358;-72
2022/10/10 23:47:17;;;;;;;;;;;16.60;69.30;;;;;;5089529;28;19937;-73
2022/10/10 23:49:44;;;;;;;;;;;16.60;70.30;;;;;;5091969;28;20354;-73
2022/10/10 23:52:11;;;;;;;;;;;16.60;69.70;;;;;;5088367;28;19912;-73
2022/10/10 23:54:37;;;;;;;;;;;16.70;69.20;;;;;;5087818;28;19919;-73
2022/10/10 23:57:04;;;;;;;;;;;16.70;69.50;;;;;;5088642;28;19923;-73
2022/10/10 23:59:31;;;;;;;;;;;16.80;69.00;;;;;;5091642;28;19915;-74
